IGO274E VIDP-VAAH
Flight info
| Callsign | IGO274E |
|---|---|
| Flight time | 1h 3m |
| Altitude | 36000 |
| Route | DUDUM6C DUDUM A474 NIKOT R462 UUD UUD1A |
| Aircraft | A20N/M-SDE2E3FGHIRWXY/LB1 |
Departure
| Time | 2026-04-26 17:11 |
|---|---|
| Airport | Indira Gandhi International Airport (VIDP) |
Arrival
| Time | 2026-04-26 18:14 |
|---|---|
| Airport | Sardar Vallabh Patel International Airport (VAAH) |
| Time | Latitude | Longitude | Altitude | Speed | Heading |
|---|---|---|---|---|---|
| 2026-04-26 16:51 | 28.55069 | 77.08934 | 785 ft | 0 kts | 241° |
| 2026-04-26 17:01 | 28.55074 | 77.08946 | 785 ft | 2 kts | 240° |
| 2026-04-26 17:01 | 28.55082 | 77.08961 | 785 ft | 2 kts | 241° |
| 2026-04-26 17:02 | 28.55086 | 77.08970 | 785 ft | 2 kts | 239° |
| 2026-04-26 17:02 | 28.55097 | 77.08982 | 785 ft | 2 kts | 211° |
| 2026-04-26 17:02 | 28.55109 | 77.08988 | 785 ft | 2 kts | 192° |
| 2026-04-26 17:02 | 28.55125 | 77.08989 | 785 ft | 2 kts | 167° |
| 2026-04-26 17:03 | 28.55135 | 77.08985 | 785 ft | 0 kts | 152° |
| 2026-04-26 17:03 | 28.55141 | 77.08981 | 785 ft | 0 kts | 149° |
| 2026-04-26 17:05 | 28.55129 | 77.08990 | 784 ft | 6 kts | 149° |
| 2026-04-26 17:05 | 28.55064 | 77.09032 | 784 ft | 14 kts | 149° |
| 2026-04-26 17:05 | 28.54965 | 77.09098 | 785 ft | 12 kts | 149° |
| 2026-04-26 17:05 | 28.54948 | 77.09109 | 784 ft | 4 kts | 149° |
| 2026-04-26 17:06 | 28.54926 | 77.09124 | 784 ft | 5 kts | 149° |
| 2026-04-26 17:06 | 28.54889 | 77.09148 | 784 ft | 10 kts | 150° |
| 2026-04-26 17:06 | 28.54792 | 77.09172 | 784 ft | 16 kts | 193° |
| 2026-04-26 17:06 | 28.54698 | 77.09238 | 784 ft | 21 kts | 107° |
| 2026-04-26 17:07 | 28.54658 | 77.09412 | 785 ft | 25 kts | 104° |
| 2026-04-26 17:07 | 28.54612 | 77.09605 | 785 ft | 25 kts | 104° |
| 2026-04-26 17:07 | 28.54572 | 77.09780 | 784 ft | 24 kts | 105° |
| 2026-04-26 17:07 | 28.54528 | 77.09969 | 785 ft | 22 kts | 104° |
| 2026-04-26 17:08 | 28.54487 | 77.10137 | 784 ft | 21 kts | 104° |
| 2026-04-26 17:08 | 28.54451 | 77.10296 | 784 ft | 20 kts | 104° |
| 2026-04-26 17:08 | 28.54415 | 77.10448 | 784 ft | 19 kts | 104° |
| 2026-04-26 17:08 | 28.54383 | 77.10545 | 784 ft | 6 kts | 147° |
| 2026-04-26 17:09 | 28.54335 | 77.10545 | 784 ft | 7 kts | 194° |
| 2026-04-26 17:09 | 28.54301 | 77.10535 | 784 ft | 8 kts | 195° |
| 2026-04-26 17:09 | 28.54247 | 77.10519 | 784 ft | 3 kts | 195° |
| 2026-04-26 17:09 | 28.54207 | 77.10506 | 785 ft | 11 kts | 194° |
| 2026-04-26 17:10 | 28.54092 | 77.10474 | 785 ft | 23 kts | 193° |
| 2026-04-26 17:10 | 28.53912 | 77.10405 | 785 ft | 31 kts | 237° |
| 2026-04-26 17:10 | 28.53940 | 77.10143 | 785 ft | 38 kts | 282° |
| 2026-04-26 17:10 | 28.54057 | 77.09650 | 785 ft | 98 kts | 286° |
| 2026-04-26 17:11 | 28.54273 | 77.08673 | 785 ft | 155 kts | 281° |
| 2026-04-26 17:11 | 28.54555 | 77.07375 | 1000 ft | 183 kts | 285° |
| 2026-04-26 17:11 | 28.54861 | 77.05997 | 1681 ft | 180 kts | 283° |
| 2026-04-26 17:11 | 28.54881 | 77.04665 | 2187 ft | 191 kts | 251° |
| 2026-04-26 17:12 | 28.52567 | 77.02857 | 2868 ft | 230 kts | 198° |
| 2026-04-26 17:12 | 28.51007 | 77.02336 | 3248 ft | 246 kts | 197° |
| 2026-04-26 17:13 | 28.47542 | 77.01086 | 4064 ft | 277 kts | 200° |
| 2026-04-26 17:13 | 28.47029 | 77.00887 | 4247 ft | 278 kts | 200° |
| 2026-04-26 17:13 | 28.44125 | 76.99724 | 5410 ft | 282 kts | 201° |
| 2026-04-26 17:14 | 28.42310 | 76.98978 | 6114 ft | 285 kts | 201° |
| 2026-04-26 17:14 | 28.38547 | 76.97417 | 7551 ft | 292 kts | 201° |
| 2026-04-26 17:14 | 28.36660 | 76.96631 | 8258 ft | 296 kts | 201° |
| 2026-04-26 17:15 | 28.33887 | 76.95474 | 9272 ft | 301 kts | 201° |
| 2026-04-26 17:15 | 28.31908 | 76.94650 | 9978 ft | 304 kts | 201° |
| 2026-04-26 17:15 | 28.29903 | 76.93816 | 10674 ft | 308 kts | 201° |
| 2026-04-26 17:16 | 28.27899 | 76.92982 | 11349 ft | 312 kts | 201° |
| 2026-04-26 17:16 | 28.25897 | 76.92101 | 12007 ft | 315 kts | 206° |
| 2026-04-26 17:16 | 28.23962 | 76.90915 | 12659 ft | 318 kts | 215° |
| 2026-04-26 17:16 | 28.22127 | 76.89415 | 13029 ft | 331 kts | 220° |
| 2026-04-26 17:17 | 28.20303 | 76.87785 | 13318 ft | 347 kts | 221° |
| 2026-04-26 17:17 | 28.18406 | 76.86073 | 13596 ft | 362 kts | 221° |
| 2026-04-26 17:17 | 28.16371 | 76.84246 | 13867 ft | 378 kts | 221° |
| 2026-04-26 17:17 | 28.14270 | 76.82375 | 14126 ft | 392 kts | 221° |
| 2026-04-26 17:18 | 28.12127 | 76.80474 | 14367 ft | 405 kts | 221° |
| 2026-04-26 17:18 | 28.09842 | 76.78454 | 14785 ft | 413 kts | 221° |
| 2026-04-26 17:18 | 28.07615 | 76.76491 | 15364 ft | 415 kts | 221° |
| 2026-04-26 17:18 | 28.05310 | 76.74461 | 15948 ft | 418 kts | 221° |
| 2026-04-26 17:19 | 28.00722 | 76.70421 | 17045 ft | 423 kts | 221° |
| 2026-04-26 17:19 | 27.98404 | 76.68381 | 17581 ft | 426 kts | 221° |
| 2026-04-26 17:19 | 27.96072 | 76.66330 | 18108 ft | 428 kts | 221° |
| 2026-04-26 17:20 | 27.93694 | 76.64239 | 18632 ft | 431 kts | 221° |
| 2026-04-26 17:20 | 27.92107 | 76.62846 | 18974 ft | 433 kts | 221° |
| 2026-04-26 17:20 | 27.88948 | 76.60073 | 19650 ft | 436 kts | 221° |
| 2026-04-26 17:20 | 27.86587 | 76.58013 | 20151 ft | 438 kts | 221° |
| 2026-04-26 17:21 | 27.84130 | 76.55869 | 20651 ft | 441 kts | 222° |
| 2026-04-26 17:21 | 27.81691 | 76.53738 | 21143 ft | 443 kts | 222° |
| 2026-04-26 17:21 | 27.79233 | 76.51699 | 21596 ft | 447 kts | 219° |
| 2026-04-26 17:21 | 27.76616 | 76.49707 | 22028 ft | 451 kts | 218° |
| 2026-04-26 17:22 | 27.74000 | 76.47736 | 22476 ft | 453 kts | 218° |
| 2026-04-26 17:22 | 27.71330 | 76.45726 | 22935 ft | 455 kts | 218° |
| 2026-04-26 17:22 | 27.68695 | 76.43742 | 23378 ft | 457 kts | 218° |
| 2026-04-26 17:22 | 27.66093 | 76.41784 | 23799 ft | 459 kts | 218° |
| 2026-04-26 17:23 | 27.63413 | 76.39767 | 24226 ft | 461 kts | 218° |
| 2026-04-26 17:23 | 27.60751 | 76.37763 | 24641 ft | 463 kts | 218° |
| 2026-04-26 17:23 | 27.58082 | 76.35755 | 25041 ft | 465 kts | 218° |
| 2026-04-26 17:23 | 27.55363 | 76.33707 | 25437 ft | 466 kts | 218° |
| 2026-04-26 17:24 | 27.52702 | 76.31705 | 25813 ft | 468 kts | 217° |
| 2026-04-26 17:24 | 27.49924 | 76.29751 | 26189 ft | 471 kts | 216° |
| 2026-04-26 17:24 | 27.47158 | 76.27846 | 26683 ft | 469 kts | 216° |
| 2026-04-26 17:24 | 27.44395 | 76.25950 | 27225 ft | 466 kts | 216° |
| 2026-04-26 17:25 | 27.41654 | 76.24071 | 27763 ft | 462 kts | 216° |
| 2026-04-26 17:25 | 27.38956 | 76.22223 | 28235 ft | 460 kts | 216° |
| 2026-04-26 17:25 | 27.36233 | 76.20358 | 28688 ft | 458 kts | 216° |
| 2026-04-26 17:25 | 27.33549 | 76.18520 | 29139 ft | 455 kts | 216° |
| 2026-04-26 17:26 | 27.30849 | 76.16670 | 29577 ft | 453 kts | 217° |
| 2026-04-26 17:26 | 27.28172 | 76.14839 | 29980 ft | 451 kts | 216° |
| 2026-04-26 17:26 | 27.25509 | 76.13017 | 30359 ft | 449 kts | 217° |
| 2026-04-26 17:26 | 27.22842 | 76.11195 | 30729 ft | 448 kts | 217° |
| 2026-04-26 17:27 | 27.20227 | 76.09408 | 31100 ft | 445 kts | 217° |
| 2026-04-26 17:27 | 27.17627 | 76.07633 | 31465 ft | 443 kts | 217° |
| 2026-04-26 17:27 | 27.14979 | 76.05827 | 31813 ft | 441 kts | 217° |
| 2026-04-26 17:27 | 27.12412 | 76.04076 | 32155 ft | 439 kts | 217° |
| 2026-04-26 17:28 | 27.09855 | 76.02335 | 32485 ft | 438 kts | 217° |
| 2026-04-26 17:28 | 27.07290 | 76.00587 | 32788 ft | 436 kts | 217° |
| 2026-04-26 17:28 | 27.04709 | 75.98829 | 33109 ft | 434 kts | 217° |
| 2026-04-26 17:28 | 27.02176 | 75.97105 | 33418 ft | 433 kts | 217° |
| 2026-04-26 17:29 | 26.99659 | 75.95390 | 33708 ft | 431 kts | 217° |
| 2026-04-26 17:29 | 26.97943 | 75.94222 | 33904 ft | 430 kts | 216° |
| 2026-04-26 17:29 | 26.94564 | 75.91926 | 34227 ft | 429 kts | 216° |
| 2026-04-26 17:29 | 26.92025 | 75.90200 | 34406 ft | 430 kts | 216° |
| 2026-04-26 17:30 | 26.89498 | 75.88487 | 34558 ft | 432 kts | 215° |
| 2026-04-26 17:30 | 26.86978 | 75.86787 | 34711 ft | 433 kts | 214° |
| 2026-04-26 17:30 | 26.84345 | 75.85124 | 34871 ft | 435 kts | 212° |
| 2026-04-26 17:30 | 26.81716 | 75.83521 | 35030 ft | 433 kts | 217° |
| 2026-04-26 17:31 | 26.79399 | 75.81618 | 35178 ft | 430 kts | 222° |
| 2026-04-26 17:31 | 26.77102 | 75.79536 | 35333 ft | 430 kts | 223° |
| 2026-04-26 17:31 | 26.74844 | 75.77464 | 35468 ft | 431 kts | 223° |
| 2026-04-26 17:31 | 26.72588 | 75.75397 | 35594 ft | 431 kts | 223° |
| 2026-04-26 17:32 | 26.70294 | 75.73308 | 35717 ft | 432 kts | 223° |
| 2026-04-26 17:32 | 26.68040 | 75.71262 | 35753 ft | 433 kts | 223° |
| 2026-04-26 17:32 | 26.63463 | 75.67126 | 35767 ft | 433 kts | 223° |
| 2026-04-26 17:33 | 26.58904 | 75.63021 | 35769 ft | 433 kts | 223° |
| 2026-04-26 17:34 | 26.51990 | 75.56806 | 35770 ft | 433 kts | 222° |
| 2026-04-26 17:34 | 26.47397 | 75.52686 | 35770 ft | 433 kts | 222° |
| 2026-04-26 17:35 | 26.42834 | 75.48598 | 35769 ft | 433 kts | 222° |
| 2026-04-26 17:35 | 26.38321 | 75.44556 | 35770 ft | 433 kts | 223° |
| 2026-04-26 17:36 | 26.33800 | 75.40514 | 35769 ft | 433 kts | 222° |
| 2026-04-26 17:36 | 26.29209 | 75.36412 | 35770 ft | 433 kts | 222° |
| 2026-04-26 17:37 | 26.24612 | 75.32298 | 35771 ft | 434 kts | 222° |
| 2026-04-26 17:37 | 26.19948 | 75.28116 | 35770 ft | 434 kts | 222° |
| 2026-04-26 17:38 | 26.12882 | 75.21812 | 35768 ft | 433 kts | 222° |
| 2026-04-26 17:38 | 26.08172 | 75.17622 | 35768 ft | 433 kts | 222° |
| 2026-04-26 17:39 | 26.03383 | 75.13367 | 35769 ft | 433 kts | 222° |
| 2026-04-26 17:39 | 25.98626 | 75.09148 | 35769 ft | 434 kts | 222° |
| 2026-04-26 17:40 | 25.94655 | 75.05627 | 35770 ft | 434 kts | 222° |
| 2026-04-26 17:40 | 25.89135 | 75.00742 | 35769 ft | 434 kts | 222° |
| 2026-04-26 17:41 | 25.84358 | 74.96544 | 35769 ft | 434 kts | 222° |
| 2026-04-26 17:41 | 25.79688 | 74.92436 | 35771 ft | 435 kts | 222° |
| 2026-04-26 17:42 | 25.74966 | 74.88276 | 35769 ft | 435 kts | 222° |
| 2026-04-26 17:42 | 25.70197 | 74.84072 | 35770 ft | 435 kts | 222° |
| 2026-04-26 17:43 | 25.65418 | 74.79864 | 35770 ft | 435 kts | 222° |
| 2026-04-26 17:43 | 25.60716 | 74.75729 | 35770 ft | 435 kts | 222° |
| 2026-04-26 17:44 | 25.55999 | 74.71584 | 35770 ft | 435 kts | 222° |
| 2026-04-26 17:44 | 25.51257 | 74.67421 | 35770 ft | 435 kts | 222° |
| 2026-04-26 17:45 | 25.46580 | 74.63319 | 35770 ft | 435 kts | 222° |
| 2026-04-26 17:45 | 25.41922 | 74.59238 | 35769 ft | 435 kts | 222° |
| 2026-04-26 17:46 | 25.37251 | 74.55149 | 35769 ft | 435 kts | 222° |
| 2026-04-26 17:46 | 25.32466 | 74.50966 | 35770 ft | 435 kts | 222° |
| 2026-04-26 17:47 | 25.28493 | 74.47495 | 35769 ft | 435 kts | 222° |
| 2026-04-26 17:47 | 25.22997 | 74.42698 | 35770 ft | 435 kts | 222° |
| 2026-04-26 17:48 | 25.18365 | 74.38661 | 35769 ft | 435 kts | 222° |
| 2026-04-26 17:48 | 25.13717 | 74.34615 | 35771 ft | 435 kts | 221° |
| 2026-04-26 17:49 | 25.09020 | 74.30501 | 35769 ft | 436 kts | 221° |
| 2026-04-26 17:49 | 25.04289 | 74.26367 | 35767 ft | 439 kts | 221° |
| 2026-04-26 17:50 | 24.99532 | 74.22230 | 35764 ft | 442 kts | 220° |
| 2026-04-26 17:50 | 24.94707 | 74.18044 | 35759 ft | 445 kts | 220° |
| 2026-04-26 17:51 | 24.89908 | 74.13892 | 35752 ft | 446 kts | 220° |
| 2026-04-26 17:51 | 24.85018 | 74.09688 | 35748 ft | 446 kts | 220° |
| 2026-04-26 17:52 | 24.80198 | 74.05538 | 35752 ft | 446 kts | 220° |
| 2026-04-26 17:52 | 24.75336 | 74.01343 | 35760 ft | 446 kts | 220° |
| 2026-04-26 17:53 | 24.70483 | 73.97156 | 35766 ft | 446 kts | 220° |
| 2026-04-26 17:54 | 24.63216 | 73.90894 | 35769 ft | 446 kts | 220° |
| 2026-04-26 17:54 | 24.58290 | 73.86896 | 35769 ft | 446 kts | 217° |
| 2026-04-26 17:55 | 24.53285 | 73.82975 | 35189 ft | 440 kts | 217° |
| 2026-04-26 17:55 | 24.50825 | 73.81049 | 34343 ft | 444 kts | 217° |
| 2026-04-26 17:55 | 24.48281 | 73.79057 | 33375 ft | 450 kts | 217° |
| 2026-04-26 17:55 | 24.45732 | 73.77063 | 32412 ft | 455 kts | 218° |
| 2026-04-26 17:56 | 24.43237 | 73.75113 | 31466 ft | 459 kts | 218° |
| 2026-04-26 17:56 | 24.38013 | 73.71030 | 29396 ft | 469 kts | 218° |
| 2026-04-26 17:57 | 24.32546 | 73.66760 | 27091 ft | 480 kts | 218° |
| 2026-04-26 17:57 | 24.29842 | 73.64650 | 25888 ft | 486 kts | 218° |
| 2026-04-26 17:57 | 24.27000 | 73.62432 | 24727 ft | 488 kts | 218° |
| 2026-04-26 17:57 | 24.24189 | 73.60242 | 24028 ft | 481 kts | 217° |
| 2026-04-26 17:58 | 24.15933 | 73.53821 | 22151 ft | 463 kts | 217° |
| 2026-04-26 17:59 | 24.10644 | 73.49709 | 20959 ft | 453 kts | 217° |
| 2026-04-26 17:59 | 24.08008 | 73.47662 | 20361 ft | 448 kts | 217° |
| 2026-04-26 17:59 | 24.05499 | 73.45712 | 19789 ft | 444 kts | 217° |
| 2026-04-26 17:59 | 24.02966 | 73.43747 | 19210 ft | 440 kts | 217° |
| 2026-04-26 18:00 | 24.00457 | 73.41801 | 18636 ft | 436 kts | 217° |
| 2026-04-26 18:00 | 23.97951 | 73.39857 | 18060 ft | 433 kts | 217° |
| 2026-04-26 18:00 | 23.95429 | 73.37903 | 17468 ft | 430 kts | 217° |
| 2026-04-26 18:00 | 23.92937 | 73.35973 | 16874 ft | 427 kts | 217° |
| 2026-04-26 18:01 | 23.90489 | 73.34075 | 16281 ft | 424 kts | 216° |
| 2026-04-26 18:01 | 23.88142 | 73.32251 | 15732 ft | 421 kts | 216° |
| 2026-04-26 18:01 | 23.85752 | 73.30404 | 15522 ft | 409 kts | 216° |
| 2026-04-26 18:01 | 23.83462 | 73.28637 | 15341 ft | 395 kts | 216° |
| 2026-04-26 18:02 | 23.81307 | 73.26974 | 15179 ft | 382 kts | 216° |
| 2026-04-26 18:02 | 23.79881 | 73.25874 | 15081 ft | 373 kts | 216° |
| 2026-04-26 18:02 | 23.77159 | 73.23773 | 14922 ft | 356 kts | 216° |
| 2026-04-26 18:02 | 23.75167 | 73.22237 | 14830 ft | 342 kts | 216° |
| 2026-04-26 18:03 | 23.73251 | 73.20759 | 14778 ft | 328 kts | 216° |
| 2026-04-26 18:03 | 23.71401 | 73.19331 | 14725 ft | 315 kts | 216° |
| 2026-04-26 18:03 | 23.69612 | 73.17939 | 14414 ft | 311 kts | 216° |
| 2026-04-26 18:03 | 23.67899 | 73.16601 | 14130 ft | 307 kts | 216° |
| 2026-04-26 18:04 | 23.66202 | 73.15276 | 13850 ft | 302 kts | 216° |
| 2026-04-26 18:04 | 23.64506 | 73.13952 | 13499 ft | 304 kts | 216° |
| 2026-04-26 18:04 | 23.62746 | 73.12579 | 13053 ft | 322 kts | 216° |
| 2026-04-26 18:05 | 23.59068 | 73.09714 | 12327 ft | 323 kts | 216° |
| 2026-04-26 18:05 | 23.57190 | 73.08253 | 11970 ft | 322 kts | 216° |
| 2026-04-26 18:05 | 23.55395 | 73.06860 | 11617 ft | 321 kts | 216° |
| 2026-04-26 18:05 | 23.53575 | 73.05445 | 11263 ft | 319 kts | 216° |
| 2026-04-26 18:06 | 23.51777 | 73.04049 | 10919 ft | 317 kts | 216° |
| 2026-04-26 18:06 | 23.50057 | 73.02712 | 10597 ft | 315 kts | 216° |
| 2026-04-26 18:06 | 23.48265 | 73.01341 | 10260 ft | 314 kts | 215° |
| 2026-04-26 18:06 | 23.46551 | 73.00051 | 9934 ft | 312 kts | 215° |
| 2026-04-26 18:07 | 23.44799 | 72.98723 | 9780 ft | 310 kts | 218° |
| 2026-04-26 18:07 | 23.43140 | 72.97288 | 9647 ft | 311 kts | 220° |
| 2026-04-26 18:07 | 23.41520 | 72.95815 | 9369 ft | 306 kts | 221° |
| 2026-04-26 18:07 | 23.40430 | 72.94813 | 9098 ft | 306 kts | 221° |
| 2026-04-26 18:08 | 23.38257 | 72.92818 | 8592 ft | 303 kts | 221° |
| 2026-04-26 18:08 | 23.36661 | 72.91359 | 8233 ft | 301 kts | 221° |
| 2026-04-26 18:08 | 23.35049 | 72.89887 | 7867 ft | 299 kts | 221° |
| 2026-04-26 18:08 | 23.33462 | 72.88442 | 7565 ft | 294 kts | 221° |
| 2026-04-26 18:09 | 23.31910 | 72.87030 | 7078 ft | 286 kts | 221° |
| 2026-04-26 18:09 | 23.30432 | 72.85686 | 6566 ft | 281 kts | 221° |
| 2026-04-26 18:09 | 23.28993 | 72.84380 | 5996 ft | 269 kts | 220° |
| 2026-04-26 18:09 | 23.27586 | 72.83101 | 5501 ft | 265 kts | 220° |
| 2026-04-26 18:10 | 23.26180 | 72.81825 | 4873 ft | 266 kts | 219° |
| 2026-04-26 18:10 | 23.24638 | 72.80785 | 4385 ft | 262 kts | 209° |
| 2026-04-26 18:10 | 23.23154 | 72.79792 | 4039 ft | 251 kts | 217° |
| 2026-04-26 18:10 | 23.21884 | 72.78635 | 3724 ft | 243 kts | 224° |
| 2026-04-26 18:11 | 23.20713 | 72.77375 | 3415 ft | 242 kts | 226° |
| 2026-04-26 18:11 | 23.19502 | 72.76035 | 3089 ft | 240 kts | 225° |
| 2026-04-26 18:11 | 23.18333 | 72.74764 | 2776 ft | 239 kts | 225° |
| 2026-04-26 18:11 | 23.17147 | 72.73498 | 2453 ft | 231 kts | 224° |
| 2026-04-26 18:12 | 23.16137 | 72.72425 | 2175 ft | 223 kts | 224° |
| 2026-04-26 18:12 | 23.15010 | 72.71225 | 1871 ft | 214 kts | 224° |
| 2026-04-26 18:12 | 23.13951 | 72.70097 | 1590 ft | 208 kts | 224° |
| 2026-04-26 18:12 | 23.12959 | 72.69038 | 1413 ft | 195 kts | 224° |
| 2026-04-26 18:13 | 23.12020 | 72.68036 | 1139 ft | 177 kts | 224° |
| 2026-04-26 18:13 | 23.11187 | 72.67146 | 866 ft | 165 kts | 224° |
| 2026-04-26 18:13 | 23.10389 | 72.66293 | 629 ft | 152 kts | 224° |
| 2026-04-26 18:13 | 23.09894 | 72.65765 | 501 ft | 150 kts | 224° |
| 2026-04-26 18:14 | 23.08923 | 72.64711 | 258 ft | 150 kts | 224° |
| 2026-04-26 18:14 | 23.08213 | 72.63971 | 192 ft | 127 kts | 226° |
| 2026-04-26 18:14 | 23.07790 | 72.63511 | 189 ft | 21 kts | 225° |
| 2026-04-26 18:14 | 23.07723 | 72.63374 | 189 ft | 21 kts | 256° |
| 2026-04-26 18:15 | 23.07683 | 72.63212 | 187 ft | 23 kts | 255° |
| 2026-04-26 18:15 | 23.07596 | 72.63057 | 186 ft | 24 kts | 225° |
| 2026-04-26 18:15 | 23.07476 | 72.62927 | 186 ft | 21 kts | 226° |
| 2026-04-26 18:15 | 23.07497 | 72.62816 | 186 ft | 18 kts | 319° |
| 2026-04-26 18:16 | 23.07492 | 72.62706 | 186 ft | 19 kts | 226° |
| 2026-04-26 18:16 | 23.07386 | 72.62546 | 187 ft | 4 kts | 302° |
| 2026-04-26 18:16 | 23.07412 | 72.62516 | 187 ft | 6 kts | 315° |
| 2026-04-26 18:17 | 23.07426 | 72.62501 | 188 ft | 0 kts | 315° |